createdAt,value
2022-09-02T00:02:27.303Z,102270.45
2022-09-02T00:04:55.741Z,102273.08
2022-09-02T00:07:24.105Z,102260.24
2022-09-02T00:09:52.578Z,102273.33
2022-09-02T00:12:20.922Z,102274.58
2022-09-02T00:14:49.377Z,102273.61
2022-09-02T00:17:17.765Z,102274.44
2022-09-02T00:19:46.065Z,102271.58
2022-09-02T00:22:14.442Z,102273.54
2022-09-02T00:24:42.745Z,102272.45
2022-09-02T00:27:11.120Z,102273.02
2022-09-02T00:29:39.994Z,102272.86
2022-09-02T00:32:08.381Z,102271.05
2022-09-02T00:34:36.793Z,102272.00
2022-09-02T00:37:05.377Z,102275.05
2022-09-02T00:39:34.217Z,102267.95
2022-09-02T00:42:03.940Z,102268.94
2022-09-02T00:44:34.209Z,102267.37
2022-09-02T00:47:02.615Z,102265.77
2022-09-02T00:49:35.248Z,102240.02
2022-09-02T00:52:30.163Z,102253.69
2022-09-02T00:55:04.648Z,102264.14
2022-09-02T00:57:39.167Z,102265.60
2022-09-02T01:00:13.781Z,102267.03
2022-09-02T01:02:42.480Z,102267.14
2022-09-02T01:05:14.979Z,102263.86
2022-09-02T01:07:44.929Z,102262.41
2022-09-02T01:10:20.731Z,102247.41
2022-09-02T01:12:49.823Z,102262.14
2022-09-02T01:15:18.147Z,102255.72
2022-09-02T01:17:50.469Z,102256.27
2022-09-02T01:20:27.060Z,102251.59
2022-09-02T01:22:57.391Z,102251.73
2022-09-02T01:25:33.519Z,102248.67
2022-09-02T01:28:09.839Z,102252.38
2022-09-02T01:30:42.363Z,102251.13
2022-09-02T01:33:11.712Z,102252.48
2022-09-02T01:35:40.595Z,102252.67
2022-09-02T01:38:09.831Z,102252.30
2022-09-02T01:40:39.187Z,102250.35
2022-09-02T01:43:12.435Z,102250.54
2022-09-02T01:45:43.049Z,102246.98
2022-09-02T01:48:14.450Z,102243.16
2022-09-02T01:50:57.851Z,102245.07
2022-09-02T01:53:27.267Z,102244.80
2022-09-02T01:55:56.147Z,102238.08
2022-09-02T01:58:24.952Z,102245.60
2022-09-02T02:00:53.339Z,102246.05
2022-09-02T02:03:21.966Z,102247.35
2022-09-02T02:05:50.896Z,102237.23
2022-09-02T02:08:20.459Z,102248.59
2022-09-02T02:10:48.787Z,102252.26
2022-09-02T02:13:16.939Z,102253.51
2022-09-02T02:15:46.086Z,102253.97
2022-09-02T02:18:14.609Z,102255.98
2022-09-02T02:20:42.943Z,102256.06
2022-09-02T02:23:13.905Z,102252.66
2022-09-02T02:25:42.119Z,102251.94
2022-09-02T02:28:11.943Z,102255.02
2022-09-02T02:30:40.715Z,102259.07
2022-09-02T02:33:10.567Z,102260.54
2022-09-02T02:35:39.347Z,102265.01
2022-09-02T02:38:08.667Z,102269.52
2022-09-02T02:40:37.650Z,102272.84
2022-09-02T02:43:06.633Z,102278.41
2022-09-02T02:45:35.048Z,102275.24
2022-09-02T02:48:03.796Z,102277.48
2022-09-02T02:50:33.672Z,102278.84
2022-09-02T02:53:03.473Z,102283.11
2022-09-02T02:55:32.060Z,102283.59
2022-09-02T02:58:01.713Z,102282.33
2022-09-02T03:00:33.417Z,102284.66
2022-09-02T03:03:07.610Z,102279.39
2022-09-02T03:05:38.028Z,102276.34
2022-09-02T03:08:10.353Z,102272.42
2022-09-02T03:10:42.141Z,102272.55
2022-09-02T03:13:12.242Z,102270.13
2022-09-02T03:15:40.729Z,102269.30
2022-09-02T03:18:09.893Z,102258.28
2022-09-02T03:20:40.954Z,102265.19
2022-09-02T03:23:12.683Z,102259.27
2022-09-02T03:25:45.090Z,102255.21
2022-09-02T03:28:28.315Z,102257.73
2022-09-02T03:30:57.670Z,102257.90
2022-09-02T03:33:27.558Z,102251.55
2022-09-02T03:35:57.242Z,102256.97
2022-09-02T03:38:26.710Z,102254.73
2022-09-02T03:40:55.254Z,102260.38
2022-09-02T03:43:23.862Z,102258.81
2022-09-02T03:45:52.301Z,102260.30
2022-09-02T03:48:23.418Z,102263.06
2022-09-02T03:50:51.818Z,102262.53
2022-09-02T03:53:21.536Z,102263.31
2022-09-02T03:55:55.226Z,102263.88
2022-09-02T03:58:25.882Z,102267.85
2022-09-02T04:00:55.046Z,102267.39
2022-09-02T04:03:24.699Z,102267.59
2022-09-02T04:05:53.486Z,102252.65
2022-09-02T04:08:23.994Z,102275.50
2022-09-02T04:10:53.238Z,102279.81
2022-09-02T04:13:21.702Z,102287.76
2022-09-02T04:15:50.317Z,102288.12
2022-09-02T04:18:21.386Z,102288.79
2022-09-02T04:20:51.426Z,102292.15
2022-09-02T04:23:20.479Z,102294.05
2022-09-02T04:25:49.301Z,102298.29
2022-09-02T04:28:18.304Z,102300.89
2022-09-02T04:30:49.011Z,102302.02
2022-09-02T04:33:18.196Z,102308.88
2022-09-02T04:35:49.493Z,102317.83
2022-09-02T04:38:19.018Z,102321.06
2022-09-02T04:40:48.184Z,102322.64
2022-09-02T04:43:18.417Z,102316.60
2022-09-02T04:45:47.842Z,102319.54
2022-09-02T04:48:19.242Z,102316.14
2022-09-02T04:50:49.221Z,102304.92
2022-09-02T04:53:18.706Z,102301.58
2022-09-02T04:55:48.056Z,102318.33
2022-09-02T04:58:17.144Z,102321.27
2022-09-02T05:00:47.244Z,102315.38
2022-09-02T05:03:16.449Z,102314.26
2022-09-02T05:05:45.388Z,102312.48
2022-09-02T05:08:14.621Z,102313.29
2022-09-02T05:10:48.458Z,102311.83
2022-09-02T05:13:20.231Z,102312.11
2022-09-02T05:15:49.091Z,102313.41
2022-09-02T05:18:17.967Z,102314.45
2022-09-02T05:20:46.457Z,102302.02
2022-09-02T05:23:16.636Z,102311.54
2022-09-02T05:25:45.972Z,102310.41
2022-09-02T05:28:16.772Z,102309.05
2022-09-02T05:30:45.251Z,102304.58
2022-09-02T05:33:15.132Z,102306.11
2022-09-02T05:35:47.112Z,102307.35
2022-09-02T05:38:18.374Z,102303.67
2022-09-02T05:40:47.987Z,102301.86
2022-09-02T05:43:16.424Z,102306.27
2022-09-02T05:45:44.979Z,102290.23
2022-09-02T05:48:32.900Z,102306.30
2022-09-02T05:51:05.907Z,102307.03
2022-09-02T05:53:35.400Z,102302.77
2022-09-02T05:56:05.341Z,102309.01
2022-09-02T05:58:33.897Z,102309.86
2022-09-02T06:01:14.445Z,102310.13
2022-09-02T06:03:42.933Z,102314.02
2022-09-02T06:06:11.525Z,102311.50
2022-09-02T06:08:41.482Z,102312.61
2022-09-02T06:11:12.240Z,102307.23
2022-09-02T06:13:42.509Z,102313.46
2022-09-02T06:16:16.098Z,102314.48
2022-09-02T06:18:46.577Z,102317.13
2022-09-02T06:21:15.810Z,102319.19
2022-09-02T06:23:46.190Z,102313.44
2022-09-02T06:26:17.020Z,102310.25
2022-09-02T06:28:46.503Z,102295.19
2022-09-02T06:31:20.007Z,102302.75
2022-09-02T06:33:52.811Z,102305.57
2022-09-02T06:36:28.446Z,102308.30
2022-09-02T06:38:59.318Z,102309.26
2022-09-02T06:41:32.145Z,102305.65
2022-09-02T06:44:06.981Z,102303.39
2022-09-02T06:46:43.443Z,102303.49
2022-09-02T06:49:16.495Z,102294.47
2022-09-02T06:51:48.917Z,102293.70
2022-09-02T06:54:20.710Z,102308.05
2022-09-02T06:56:51.332Z,102311.92
2022-09-02T06:59:23.582Z,102300.36
2022-09-02T07:01:58.258Z,102316.33
2022-09-02T07:04:46.068Z,102316.05
2022-09-02T07:07:16.789Z,102310.08
2022-09-02T07:09:51.497Z,102318.40
2022-09-02T07:12:19.982Z,102316.36
2022-09-02T07:14:54.398Z,102316.55
2022-09-02T07:17:26.333Z,102315.98
2022-09-02T07:20:00.561Z,102317.86
2022-09-02T07:22:31.484Z,102322.78
2022-09-02T07:25:02.342Z,102322.88
2022-09-02T07:27:31.609Z,102322.68
2022-09-02T07:30:00.700Z,102324.00
2022-09-02T07:32:29.536Z,102325.69
2022-09-02T07:34:58.332Z,102329.80
2022-09-02T07:37:26.718Z,102331.77
2022-09-02T07:39:55.441Z,102333.35
2022-09-02T07:42:24.874Z,102336.73
2022-09-02T07:44:53.869Z,102338.46
2022-09-02T07:47:22.741Z,102345.84
2022-09-02T07:52:40.172Z,102357.40
2022-09-02T07:55:14.641Z,102363.77
2022-09-02T07:57:43.894Z,102360.64
2022-09-02T08:00:14.174Z,102365.60
2022-09-02T08:02:44.774Z,102372.33
2022-09-02T08:05:16.444Z,102364.67
2022-09-02T08:07:45.302Z,102349.14
2022-09-02T08:10:15.083Z,102380.39
2022-09-02T08:12:44.513Z,102385.44
2022-09-02T08:15:14.117Z,102378.31
2022-09-02T08:17:43.518Z,102383.25
2022-09-02T08:20:16.790Z,102341.11
2022-09-02T08:22:48.952Z,102383.50
2022-09-02T08:25:24.372Z,102382.15
2022-09-02T08:30:24.304Z,102377.66
2022-09-02T08:32:52.873Z,102379.55
2022-09-02T08:35:21.866Z,102379.39
2022-09-02T08:37:50.260Z,102383.41
2022-09-02T08:40:23.023Z,102365.75
2022-09-02T08:42:56.162Z,102374.38
2022-09-02T08:45:27.752Z,102374.29
2022-09-02T08:48:08.548Z,102368.38
2022-09-02T08:50:39.916Z,102358.63
2022-09-02T08:53:21.664Z,102364.02
2022-09-02T08:55:56.962Z,102366.17
2022-09-02T08:58:32.507Z,102370.65
2022-09-02T09:01:09.547Z,102366.15
2022-09-02T09:04:00.485Z,102364.13
2022-09-02T09:06:55.190Z,102349.83
2022-09-02T09:09:45.110Z,102362.55
2022-09-02T09:12:33.114Z,102355.84
2022-09-02T09:15:29.691Z,102355.20
2022-09-02T09:18:01.786Z,102351.04
2022-09-02T09:20:33.698Z,102349.26
2022-09-02T09:23:11.963Z,102354.35
2022-09-02T09:25:41.205Z,102335.99
2022-09-02T09:28:09.711Z,102348.11
2022-09-02T09:30:41.202Z,102347.73
2022-09-02T09:33:15.761Z,102349.61
2022-09-02T09:35:54.354Z,102337.05
2022-09-02T09:38:31.590Z,102345.31
2022-09-02T09:41:29.148Z,102338.01
2022-09-02T09:43:58.140Z,102332.20
2022-09-02T09:46:34.382Z,102317.97
2022-09-02T09:49:02.928Z,102327.23
2022-09-02T09:51:31.319Z,102327.64
2022-09-02T09:54:18.426Z,102328.92
2022-09-02T09:56:47.026Z,102330.35
2022-09-02T09:59:43.141Z,102328.56
2022-09-02T10:02:31.117Z,102329.20
2022-09-02T10:05:17.333Z,102327.48
2022-09-02T10:07:55.849Z,102322.50
2022-09-02T10:10:27.391Z,102315.52
2022-09-02T10:13:00.462Z,102316.27
2022-09-02T10:15:45.127Z,102318.63
2022-09-02T10:18:32.406Z,102320.05
2022-09-02T10:21:28.931Z,102319.05
2022-09-02T10:24:15.853Z,102320.90
2022-09-02T10:26:49.539Z,102322.05
2022-09-02T10:29:24.115Z,102329.00
2022-09-02T10:32:23.385Z,102327.09
2022-09-02T10:34:57.654Z,102329.59
2022-09-02T10:37:35.726Z,102327.23
2022-09-02T10:40:17.351Z,102316.39
2022-09-02T10:43:12.010Z,102317.08
2022-09-02T10:45:48.307Z,102323.38
2022-09-02T10:48:53.753Z,102320.17
2022-09-02T10:51:42.699Z,102314.55
2022-09-02T10:54:28.595Z,102321.96
2022-09-02T10:57:11.556Z,102319.19
2022-09-02T10:59:54.272Z,102320.74
2022-09-02T11:02:35.446Z,102320.06
2022-09-02T11:05:19.985Z,102319.39
2022-09-02T11:08:03.932Z,102321.45
2022-09-02T11:10:39.033Z,102321.99
2022-09-02T11:13:20.219Z,102317.69
2022-09-02T11:16:07.681Z,102319.06
2022-09-02T11:18:49.961Z,102317.44
2022-09-02T11:21:31.875Z,102315.80
2022-09-02T11:24:15.614Z,102313.98
2022-09-02T11:27:25.931Z,102308.59
2022-09-02T11:29:58.624Z,102306.75
2022-09-02T11:33:05.065Z,102303.30
2022-09-02T11:35:39.056Z,102298.79
2022-09-02T11:38:44.261Z,102297.27
2022-09-02T11:41:43.537Z,102301.02
2022-09-02T11:44:26.918Z,102270.38
2022-09-02T11:47:41.908Z,102295.45
2022-09-02T11:50:39.622Z,102294.98
2022-09-02T11:53:20.827Z,102286.00
2022-09-02T11:56:29.277Z,102279.21
2022-09-02T11:58:57.849Z,102290.98
2022-09-02T12:01:35.085Z,102285.45
2022-09-02T12:07:08.599Z,102281.15
2022-09-02T12:09:49.708Z,102269.88
2022-09-02T12:12:47.795Z,102270.38
2022-09-02T12:15:20.024Z,102261.94
2022-09-02T12:17:48.762Z,102261.42
2022-09-02T12:20:39.323Z,102261.05
2022-09-02T12:23:10.229Z,102241.79
2022-09-02T12:25:49.870Z,102254.02
2022-09-02T12:28:24.068Z,102247.70
2022-09-02T12:30:56.714Z,102247.89
2022-09-02T12:33:34.730Z,102251.15
2022-09-02T12:36:05.867Z,102237.33
2022-09-02T12:38:34.531Z,102246.92
2022-09-02T12:41:05.844Z,102246.88
2022-09-02T12:43:44.683Z,102248.77
2022-09-02T12:46:45.614Z,102254.73
2022-09-02T12:49:27.553Z,102252.70
2022-09-02T12:52:01.725Z,102252.39
2022-09-02T12:54:38.789Z,102258.98
2022-09-02T12:57:08.597Z,102255.92
2022-09-02T12:59:41.829Z,102246.12
2022-09-02T13:02:37.424Z,102249.05
2022-09-02T13:05:35.717Z,102245.89
2022-09-02T13:08:07.060Z,102238.63
2022-09-02T13:10:59.348Z,102246.18
2022-09-02T13:13:55.283Z,102244.77
2022-09-02T13:16:35.438Z,102243.09
2022-09-02T13:19:28.379Z,102232.71
2022-09-02T13:22:35.284Z,102228.43
2022-09-02T13:25:13.323Z,102235.59
2022-09-02T13:28:07.211Z,102237.11
2022-09-02T13:31:03.144Z,102242.55
2022-09-02T13:33:31.571Z,102237.15
2022-09-02T13:36:00.324Z,102246.24
2022-09-02T13:38:31.060Z,102246.52
2022-09-02T13:40:59.674Z,102242.83
2022-09-02T13:43:28.487Z,102237.77
2022-09-02T13:46:02.179Z,102226.98
2022-09-02T13:48:33.909Z,102233.96
2022-09-02T13:51:22.464Z,102238.35
2022-09-02T13:54:21.688Z,102232.97
2022-09-02T13:56:40.004Z,102234.20
2022-09-02T13:59:09.217Z,102211.19
2022-09-02T14:01:40.325Z,102219.99
2022-09-02T14:04:15.743Z,102232.77
2022-09-02T14:06:47.914Z,102230.58
2022-09-02T14:09:25.972Z,102228.13
2022-09-02T14:11:55.257Z,102213.55
2022-09-02T14:14:25.825Z,102224.51
2022-09-02T14:17:24.189Z,102228.31
2022-09-02T14:20:09.161Z,102207.88
2022-09-02T14:22:37.613Z,102226.02
2022-09-02T14:25:16.980Z,102229.68
2022-09-02T14:27:57.456Z,102230.83
2022-09-02T14:30:34.774Z,102221.41
2022-09-02T14:33:25.269Z,102234.64
2022-09-02T14:36:08.147Z,102233.48
2022-09-02T14:38:38.716Z,102232.46
2022-09-02T14:41:28.433Z,102235.06
2022-09-02T14:44:23.164Z,102234.98
2022-09-02T14:46:55.140Z,102229.57
2022-09-02T14:49:28.945Z,102231.96
2022-09-02T14:52:03.804Z,102229.02
2022-09-02T14:54:42.337Z,102231.96
2022-09-02T14:57:21.505Z,102234.02
2022-09-02T14:59:51.402Z,102233.03
2022-09-02T15:02:28.550Z,102230.39
2022-09-02T15:05:07.448Z,102228.50
2022-09-02T15:07:35.786Z,102229.77
2022-09-02T15:10:04.306Z,102230.46
2022-09-02T15:12:34.236Z,102228.02
2022-09-02T15:15:02.522Z,102220.27
2022-09-02T15:17:31.174Z,102221.83
2022-09-02T15:19:59.626Z,102221.65
2022-09-02T15:22:28.530Z,102222.80
2022-09-02T15:24:58.070Z,102220.80
2022-09-02T15:27:26.606Z,102222.83
2022-09-02T15:29:55.850Z,102217.67
2022-09-02T15:32:27.195Z,102224.11
2022-09-02T15:34:55.736Z,102214.48
2022-09-02T15:37:24.431Z,102218.96
2022-09-02T15:39:52.952Z,102220.87
2022-09-02T15:42:21.374Z,102220.35
2022-09-02T15:44:49.866Z,102221.55
2022-09-02T15:47:18.186Z,102222.00
2022-09-02T15:49:46.626Z,102223.82
2022-09-02T15:52:14.998Z,102227.89
2022-09-02T15:54:43.375Z,102212.85
2022-09-02T15:57:11.801Z,102223.63
2022-09-02T15:59:40.404Z,102225.60
2022-09-02T16:02:08.730Z,102235.09
2022-09-02T16:04:37.269Z,102237.90
2022-09-02T16:07:05.639Z,102239.25
2022-09-02T16:09:34.372Z,102232.34
2022-09-02T16:12:03.490Z,102231.69
2022-09-02T16:14:32.222Z,102238.58
2022-09-02T16:17:00.755Z,102239.05
2022-09-02T16:19:30.571Z,102236.19
2022-09-02T16:21:59.302Z,102238.96
2022-09-02T16:24:28.044Z,102239.98
2022-09-02T16:26:56.333Z,102222.72
2022-09-02T16:29:28.144Z,102242.27
2022-09-02T16:32:14.499Z,102230.39
2022-09-02T16:34:46.933Z,102242.73
2022-09-02T16:37:15.509Z,102241.02
2022-09-02T16:39:44.154Z,102238.66
2022-09-02T16:42:12.652Z,102250.67
2022-09-02T16:44:41.732Z,102246.64
2022-09-02T16:47:11.722Z,102239.44
2022-09-02T16:49:41.234Z,102230.63
2022-09-02T16:52:09.960Z,102236.52
2022-09-02T16:54:41.100Z,102237.85
2022-09-02T16:57:11.389Z,102241.85
2022-09-02T16:59:40.085Z,102242.02
2022-09-02T17:02:08.544Z,102245.50
2022-09-02T17:04:38.586Z,102244.30
2022-09-02T17:07:07.105Z,102214.23
2022-09-02T17:09:36.721Z,102232.72
2022-09-02T17:12:05.213Z,102239.61
2022-09-02T17:14:34.599Z,102246.55
2022-09-02T17:17:03.207Z,102246.69
2022-09-02T17:19:33.274Z,102247.13
2022-09-02T17:22:01.619Z,102245.12
2022-09-02T17:24:31.787Z,102237.02
2022-09-02T17:27:01.425Z,102251.03
2022-09-02T17:32:20.587Z,102227.55
2022-09-02T17:34:49.994Z,102246.79
2022-09-02T17:37:19.606Z,102249.42
2022-09-02T17:39:51.388Z,102247.90
2022-09-02T17:42:21.677Z,102248.09
2022-09-02T17:44:50.413Z,102245.11
2022-09-02T17:47:22.904Z,102250.17
2022-09-02T17:49:52.097Z,102248.13
2022-09-02T17:52:24.808Z,102248.98
2022-09-02T17:54:54.586Z,102255.80
2022-09-02T17:57:32.803Z,102254.96
2022-09-02T18:00:14.676Z,102258.73
2022-09-02T18:02:55.312Z,102254.80
2022-09-02T18:05:28.882Z,102257.60
2022-09-02T18:08:01.982Z,102255.21
2022-09-02T18:10:35.456Z,102258.83
2022-09-02T18:13:08.358Z,102257.24
2022-09-02T18:15:43.526Z,102262.46
2022-09-02T18:18:16.138Z,102249.70
2022-09-02T18:20:55.182Z,102256.53
2022-09-02T18:23:47.467Z,102258.72
2022-09-02T18:26:45.165Z,102256.86
2022-09-02T18:29:58.622Z,102261.31
2022-09-02T18:33:02.900Z,102264.90
2022-09-02T18:35:46.065Z,102266.46
2022-09-02T18:38:14.844Z,102269.89
2022-09-02T18:40:47.877Z,102268.86
2022-09-02T18:43:47.683Z,102268.93
2022-09-02T18:46:18.174Z,102278.07
2022-09-02T18:48:53.318Z,102279.67
2022-09-02T18:51:39.491Z,102266.63
2022-09-02T18:54:31.047Z,102280.51
2022-09-02T18:57:05.565Z,102283.34
2022-09-02T18:59:40.998Z,102273.34
2022-09-02T19:02:46.737Z,102287.63
2022-09-02T19:05:26.069Z,102288.27
2022-09-02T19:08:23.040Z,102287.59
2022-09-02T19:11:07.575Z,102274.20
2022-09-02T19:13:48.490Z,102289.29
2022-09-02T19:16:28.714Z,102290.52
2022-09-02T19:18:57.733Z,102290.59
2022-09-02T19:21:43.699Z,102294.07
2022-09-02T19:24:34.197Z,102299.66
2022-09-02T19:27:07.356Z,102301.45
2022-09-02T19:29:41.505Z,102299.66
2022-09-02T19:32:13.225Z,102303.66
2022-09-02T19:34:45.203Z,102306.88
2022-09-02T19:37:14.610Z,102306.30
2022-09-02T19:39:43.154Z,102305.55
2022-09-02T19:42:11.699Z,102304.35
2022-09-02T19:44:40.229Z,102303.32
2022-09-02T19:50:00.559Z,102302.83
2022-09-02T19:52:49.572Z,102302.86
2022-09-02T19:55:18.988Z,102275.73
2022-09-02T19:57:47.995Z,102306.05
2022-09-02T20:00:16.948Z,102304.13
2022-09-02T20:02:45.312Z,102305.76
2022-09-02T20:05:14.184Z,102307.20
2022-09-02T20:07:42.749Z,102304.45
2022-09-02T20:10:11.708Z,102303.25
2022-09-02T20:12:40.115Z,102303.10
2022-09-02T20:15:10.016Z,102302.23
2022-09-02T20:17:38.355Z,102303.23
2022-09-02T20:20:16.502Z,102303.48
2022-09-02T20:22:47.772Z,102302.96
2022-09-02T20:25:16.483Z,102303.04
2022-09-02T20:28:02.739Z,102303.30
2022-09-02T20:30:38.379Z,102292.56
2022-09-02T20:33:18.015Z,102307.48
2022-09-02T20:36:11.387Z,102309.05
2022-09-02T20:38:56.314Z,102307.56
2022-09-02T20:41:48.002Z,102312.04
2022-09-02T20:44:24.993Z,102312.61
2022-09-02T20:47:20.562Z,102309.27
2022-09-02T20:50:33.777Z,102309.48
2022-09-02T20:53:26.111Z,102307.36
2022-09-02T20:56:02.211Z,102308.23
2022-09-02T20:58:51.828Z,102310.85
2022-09-02T21:01:27.449Z,102309.88
2022-09-02T21:04:06.752Z,102304.75
2022-09-02T21:06:41.288Z,102305.23
2022-09-02T21:09:21.366Z,102307.39
2022-09-02T21:11:58.748Z,102307.27
2022-09-02T21:14:35.197Z,102306.72
2022-09-02T21:17:14.364Z,102306.76
2022-09-02T21:19:56.852Z,102308.16
2022-09-02T21:22:30.940Z,102305.52
2022-09-02T21:25:27.997Z,102303.38
2022-09-02T21:28:08.220Z,102291.48
2022-09-02T21:30:43.632Z,102309.23
2022-09-02T21:33:16.172Z,102314.96
2022-09-02T21:35:53.059Z,102316.04
2022-09-02T21:38:37.232Z,102316.11
2022-09-02T21:41:24.260Z,102314.47
2022-09-02T21:44:23.384Z,102314.02
2022-09-02T21:47:15.519Z,102314.08
2022-09-02T21:49:56.828Z,102313.09
2022-09-02T21:52:44.224Z,102310.41
2022-09-02T21:55:15.707Z,102310.53
2022-09-02T21:58:43.836Z,102310.95
2022-09-02T22:01:27.206Z,102308.13
2022-09-02T22:04:04.218Z,102306.88
2022-09-02T22:06:41.060Z,102312.42
2022-09-02T22:09:18.783Z,102310.98
2022-09-02T22:11:59.223Z,102310.73
2022-09-02T22:14:46.299Z,102305.71
2022-09-02T22:17:22.870Z,102303.72
2022-09-02T22:19:56.633Z,102287.20
2022-09-02T22:22:28.442Z,102302.73
2022-09-02T22:24:58.151Z,102303.73
2022-09-02T22:27:34.375Z,102306.77
2022-09-02T22:30:17.091Z,102304.74
2022-09-02T22:32:50.704Z,102304.14
2022-09-02T22:35:27.965Z,102302.37
2022-09-02T22:38:01.514Z,102299.44
2022-09-02T22:40:40.434Z,102297.61
2022-09-02T22:43:12.798Z,102303.02
2022-09-02T22:46:07.282Z,102300.03
2022-09-02T22:49:00.950Z,102303.48
2022-09-02T22:52:04.110Z,102308.20
2022-09-02T22:54:32.511Z,102311.56
2022-09-02T22:57:28.158Z,102310.63
2022-09-02T23:00:12.160Z,102316.64
2022-09-02T23:02:59.232Z,102313.92
2022-09-02T23:05:47.928Z,102314.65
2022-09-02T23:08:21.851Z,102317.91
2022-09-02T23:11:00.597Z,102322.02
2022-09-02T23:13:47.852Z,102315.09
2022-09-02T23:16:53.692Z,102311.64
2022-09-02T23:19:56.616Z,102316.41
2022-09-02T23:23:03.636Z,102318.54
2022-09-02T23:25:47.790Z,102320.49
2022-09-02T23:28:28.332Z,102318.27
2022-09-02T23:31:10.329Z,102320.13
2022-09-02T23:33:59.196Z,102318.65
2022-09-02T23:36:52.400Z,102319.91
2022-09-02T23:39:44.434Z,102320.45
2022-09-02T23:42:13.836Z,102319.65
2022-09-02T23:44:42.872Z,102321.05
2022-09-02T23:47:37.840Z,102320.61
2022-09-02T23:50:06.315Z,102324.54
2022-09-02T23:53:03.170Z,102323.11
2022-09-02T23:55:43.898Z,102322.86
2022-09-02T23:58:12.147Z,102321.61
